Time;durP1;ratioP1;P1;durP2;ratioP2;P2;SDS_P1;SDS_P2;PMS_P1;PMS_P2;Temp;Humidity;BMP_temperature;BMP_pressure;BME280_temperature;BME280_humidity;BME280_pressure;Samples;Min_cycle;Max_cycle;Signal;HPM_P1;HPM_P2
2022/11/23 00:00:54;;;;;;;11.35;4.40;;;;;;;4.73;97.74;99281.84;5010388;28;20037;-70
2022/11/23 00:03:20;;;;;;;12.40;4.93;;;;;;;4.87;97.71;99285.59;5006420;28;20030;-70
2022/11/23 00:05:45;;;;;;;13.32;4.30;;;;;;;4.92;97.00;99289.88;4996230;28;20054;-69
2022/11/23 00:08:10;;;;;;;12.90;5.45;;;;;;;4.88;96.57;99283.72;5007781;28;20176;-70
2022/11/23 00:10:39;;;;;;;11.88;5.18;;;;;;;4.74;97.49;99283.41;5010477;28;20100;-70
2022/11/23 00:13:05;;;;;;;9.23;4.70;;;;;;;4.82;97.48;99288.53;5003754;28;20038;-70
2022/11/23 00:15:31;;;;;;;13.13;5.57;;;;;;;4.89;97.61;99293.25;4999159;28;20284;-69
2022/11/23 00:17:58;;;;;;;8.63;4.55;;;;;;;4.85;97.24;99289.72;5005846;28;20160;-70
2022/11/23 00:20:24;;;;;;;11.57;5.03;;;;;;;4.96;96.98;99296.03;5007457;28;20029;-70
2022/11/23 00:22:50;;;;;;;15.43;6.00;;;;;;;4.95;97.01;99295.28;4999142;28;20025;-70
2022/11/23 00:25:15;;;;;;;11.20;5.13;;;;;;;5.02;97.02;99292.75;5001596;28;20037;-70
2022/11/23 00:27:41;;;;;;;11.05;5.22;;;;;;;5.01;97.13;99287.78;4995344;28;20418;-70
2022/11/23 00:30:08;;;;;;;8.73;4.43;;;;;;;4.99;97.20;99298.03;5008276;28;20490;-70
2022/11/23 00:32:34;;;;;;;10.20;4.50;;;;;;;5.05;97.39;99294.72;4998726;28;20033;-69
2022/11/23 00:35:05;;;;;;;13.68;5.80;;;;;;;5.02;96.21;99284.75;5003570;28;20180;-70
2022/11/23 00:37:31;;;;;;;7.03;3.78;;;;;;;5.02;96.96;99282.09;4996720;28;20117;-70
2022/11/23 00:39:56;;;;;;;9.32;5.13;;;;;;;5.00;97.03;99283.56;5016562;28;20561;-70
2022/11/23 00:42:22;;;;;;;10.85;4.32;;;;;;;5.01;96.69;99280.56;5008521;28;20127;-70
2022/11/23 00:44:47;;;;;;;15.68;6.28;;;;;;;5.12;96.40;99289.53;5006097;28;20117;-70
2022/11/23 00:47:12;;;;;;;8.80;4.90;;;;;;;5.10;97.17;99289.09;4992165;28;20085;-69
2022/11/23 00:49:38;;;;;;;13.00;5.45;;;;;;;5.18;96.50;99282.78;5005970;28;20092;-70
2022/11/23 00:52:03;;;;;;;9.20;4.43;;;;;;;5.09;96.55;99289.47;5005276;28;20059;-70
2022/11/23 00:54:29;;;;;;;7.82;3.95;;;;;;;5.14;96.67;99281.94;5025552;28;20033;-69
2022/11/23 00:56:55;;;;;;;15.25;5.57;;;;;;;5.19;97.00;99278.22;4990973;28;20381;-70
2022/11/23 00:59:21;;;;;;;8.77;4.38;;;;;;;5.18;96.22;99295.34;4997221;28;20029;-70
2022/11/23 01:01:47;;;;;;;14.05;5.97;;;;;;;5.05;96.06;99289.38;4995723;28;20026;-69
2022/11/23 01:04:13;;;;;;;13.93;5.07;;;;;;;5.18;96.24;99287.34;4996003;28;20471;-69
2022/11/23 01:06:39;;;;;;;12.05;5.00;;;;;;;5.31;95.58;99286.84;5007022;28;20033;-70
2022/11/23 01:09:12;;;;;;;13.80;4.70;;;;;;;5.29;95.76;99288.31;5002706;28;20045;-70
2022/11/23 01:11:38;;;;;;;11.50;5.25;;;;;;;5.30;96.23;99293.28;4999527;28;20101;-70
2022/11/23 01:14:04;;;;;;;9.60;3.88;;;;;;;5.09;96.51;99292.13;5009324;28;20125;-69
2022/11/23 01:16:33;;;;;;;10.95;4.70;;;;;;;5.16;96.45;99294.94;5003751;28;20117;-70
2022/11/23 01:19:20;;;;;;;12.65;5.18;;;;;;;5.22;96.73;99296.19;5008075;28;20030;-70
2022/11/23 01:21:48;;;;;;;15.20;5.05;;;;;;;5.22;96.61;99294.31;4962457;28;20142;-70
2022/11/23 01:24:19;;;;;;;8.88;5.00;;;;;;;5.26;96.39;99299.72;4964958;28;20125;-70
2022/11/23 01:26:50;;;;;;;8.90;4.82;;;;;;;5.28;96.45;99294.78;4961731;28;20585;-70
2022/11/23 01:29:15;;;;;;;6.55;3.63;;;;;;;5.38;96.09;99292.31;4965490;28;20038;-70
2022/11/23 01:31:41;;;;;;;12.13;4.95;;;;;;;5.37;95.79;99292.66;4922834;28;20109;-70
2022/11/23 01:34:06;;;;;;;11.73;4.63;;;;;;;5.34;95.67;99296.06;4961731;28;20057;-70
2022/11/23 01:36:33;;;;;;;19.83;5.50;;;;;;;5.31;96.23;99289.50;4968262;28;20046;-70
2022/11/23 01:39:01;;;;;;;8.55;4.40;;;;;;;5.28;96.67;99292.88;4964995;28;20043;-70
2022/11/23 01:41:32;;;;;;;7.22;4.07;;;;;;;5.35;95.88;99289.56;4960840;28;20066;-70
2022/11/23 01:43:58;;;;;;;11.07;4.32;;;;;;;5.40;95.69;99292.72;4946941;28;20027;-70
2022/11/23 01:46:24;;;;;;;10.63;4.53;;;;;;;5.46;96.18;99288.63;4946124;28;20570;-70
2022/11/23 01:49:00;;;;;;;9.82;4.70;;;;;;;5.46;95.79;99288.63;4946081;28;20074;-70
2022/11/23 01:51:45;;;;;;;8.73;4.00;;;;;;;5.45;96.07;99292.44;4966865;28;20051;-70
2022/11/23 01:54:17;;;;;;;9.80;4.32;;;;;;;5.45;95.79;99281.78;4956714;28;20035;-70
2022/11/23 01:56:46;;;;;;;11.23;4.50;;;;;;;5.47;96.01;99295.53;4960337;28;20041;-70
2022/11/23 01:59:16;;;;;;;11.25;4.68;;;;;;;5.48;95.61;99299.75;4983329;28;20041;-70
2022/11/23 02:01:42;;;;;;;8.15;4.28;;;;;;;5.50;94.92;99284.16;5002709;28;20390;-70
2022/11/23 02:04:11;;;;;;;10.73;4.82;;;;;;;5.53;95.21;99292.56;4994083;28;20414;-70
2022/11/23 02:06:43;;;;;;;9.13;4.60;;;;;;;5.53;95.26;99288.75;5006032;28;20054;-70
2022/11/23 02:09:10;;;;;;;14.23;5.43;;;;;;;5.48;94.76;99290.94;5002103;28;20088;-70
2022/11/23 02:11:35;;;;;;;14.15;5.18;;;;;;;5.52;95.41;99277.69;4997979;28;20035;-71
2022/11/23 02:14:01;;;;;;;11.38;4.50;;;;;;;5.55;95.55;99290.31;5031869;23;20045;-63
2022/11/23 02:16:29;;;;;;;12.02;4.57;;;;;;;5.60;95.10;99290.78;5012618;28;20064;-63
2022/11/23 02:18:54;;;;;;;11.38;5.13;;;;;;;5.61;94.68;99284.34;5010798;28;20504;-63
2022/11/23 02:21:20;;;;;;;10.88;3.90;;;;;;;5.52;94.95;99291.03;5026547;28;20026;-63
2022/11/23 02:24:14;;;;;;;12.32;4.38;;;;;;;5.52;95.43;99285.69;5008698;28;20033;-64
2022/11/23 02:26:40;;;;;;;13.60;4.90;;;;;;;5.54;95.03;99294.88;5003703;28;20119;-65
2022/11/23 02:29:13;;;;;;;6.22;3.47;;;;;;;5.53;94.86;99287.22;4993671;28;20034;-63
2022/11/23 02:31:38;;;;;;;12.00;4.57;;;;;;;5.43;95.47;99288.59;5010005;28;20030;-63
2022/11/23 02:34:04;;;;;;;13.68;5.38;;;;;;;5.46;95.91;99288.63;5012773;28;20390;-64
2022/11/23 02:36:40;;;;;;;8.38;4.40;;;;;;;5.53;95.10;99300.56;5011912;28;20520;-63
2022/11/23 02:39:07;;;;;;;10.65;4.57;;;;;;;5.55;95.39;99284.97;5006408;28;20505;-64
2022/11/23 02:41:53;;;;;;;10.02;4.80;;;;;;;5.58;94.99;99289.59;5012013;28;20478;-64
2022/11/23 02:44:21;;;;;;;14.88;5.10;;;;;;;5.33;96.21;99299.81;5006607;28;20049;-63
2022/11/23 02:46:49;;;;;;;7.65;4.05;;;;;;;5.43;95.91;99285.91;5011617;28;20033;-63
2022/11/23 02:49:14;;;;;;;11.77;4.47;;;;;;;5.46;96.29;99288.63;5009841;28;20073;-63
2022/11/23 02:51:40;;;;;;;7.07;3.95;;;;;;;5.55;96.33;99284.97;5013053;28;20061;-64
2022/11/23 02:54:05;;;;;;;9.07;4.60;;;;;;;5.50;95.73;99280.69;5011218;28;20068;-64
2022/11/23 02:56:34;;;;;;;5.80;3.90;;;;;;;5.48;96.09;99281.06;5011890;28;20416;-64
2022/11/23 02:58:59;;;;;;;7.55;4.60;;;;;;;5.57;96.23;99286.19;5008473;28;20092;-63
2022/11/23 03:01:25;;;;;;;8.88;4.30;;;;;;;5.62;95.36;99283.19;5009535;28;20034;-63
2022/11/23 03:03:51;;;;;;;10.68;5.50;;;;;;;5.62;95.34;99280.53;4994656;28;20026;-64
2022/11/23 03:06:16;;;;;;;10.68;4.88;;;;;;;5.65;96.00;99281.72;5009224;28;20038;-64
2022/11/23 03:08:42;;;;;;;11.60;4.68;;;;;;;5.65;95.52;99287.06;5007809;28;20029;-64
2022/11/23 03:11:10;;;;;;;13.55;5.13;;;;;;;5.59;95.70;99291.16;5011669;28;20033;-64
2022/11/23 03:13:36;;;;;;;7.72;4.43;;;;;;;5.64;96.10;99285.50;5009887;28;20517;-63
2022/11/23 03:16:02;;;;;;;12.20;4.35;;;;;;;5.71;95.87;99291.00;5007447;28;20034;-63
2022/11/23 03:18:27;;;;;;;7.25;4.68;;;;;;;5.47;96.01;99284.09;5008881;28;20087;-63
2022/11/23 03:20:53;;;;;;;8.77;4.18;;;;;;;5.57;95.86;99288.06;5011234;28;20033;-63
2022/11/23 03:23:19;;;;;;;9.55;5.20;;;;;;;5.58;95.98;99290.38;5001998;28;20026;-63
2022/11/23 03:25:54;;;;;;;10.88;4.60;;;;;;;5.66;96.25;99296.59;4981727;28;20034;-63
2022/11/23 03:28:20;;;;;;;10.27;3.95;;;;;;;5.71;95.80;99289.06;5006872;28;20025;-63
2022/11/23 03:30:45;;;;;;;8.32;4.72;;;;;;;5.74;95.57;99288.38;5002830;28;20509;-63
2022/11/23 03:33:11;;;;;;;8.10;4.40;;;;;;;5.77;95.15;99286.91;5009408;28;20533;-63
2022/11/23 03:35:37;;;;;;;10.32;4.63;;;;;;;5.79;95.42;99284.66;5012224;28;20041;-63
2022/11/23 03:38:29;;;;;;;8.60;4.57;;;;;;;5.85;95.15;99294.69;5001671;28;20042;-63
2022/11/23 03:40:55;;;;;;;10.88;5.05;;;;;;;5.66;95.63;99288.59;5010532;28;20033;-63
2022/11/23 03:43:28;;;;;;;15.30;5.38;;;;;;;5.69;95.27;99291.31;5004073;28;20151;-63
2022/11/23 03:45:54;;;;;;;10.68;4.47;;;;;;;5.81;95.98;99290.38;4991963;28;20503;-63
2022/11/23 03:48:19;;;;;;;8.52;4.43;;;;;;;5.88;94.71;99298.56;5006416;28;20058;-63
2022/11/23 03:50:45;;;;;;;7.60;4.35;;;;;;;5.77;95.52;99292.25;5007255;28;20185;-63
2022/11/23 03:53:11;;;;;;;5.97;4.00;;;;;;;5.78;95.15;99296.44;4987253;28;20034;-63
2022/11/23 03:55:36;;;;;;;14.70;5.50;;;;;;;5.80;95.07;99286.19;5010263;28;20033;-63
2022/11/23 03:58:02;;;;;;;7.32;3.75;;;;;;;5.83;95.11;99304.97;5009899;28;20589;-64
2022/11/23 04:00:32;;;;;;;8.18;4.15;;;;;;;5.80;95.53;99288.84;5007350;28;20029;-63
2022/11/23 04:02:58;;;;;;;7.43;3.30;;;;;;;5.84;95.72;99290.50;5009110;28;20486;-63
2022/11/23 04:06:02;;;;;;;8.95;4.95;;;;;;;5.82;96.03;99286.59;5001908;28;20034;-63
2022/11/23 04:08:47;;;;;;;8.23;3.97;;;;;;;5.83;95.76;99288.13;5010528;28;20060;-63
2022/11/23 04:11:20;;;;;;;7.68;3.17;;;;;;;5.89;95.58;99281.38;5009317;28;20038;-63
2022/11/23 04:13:47;;;;;;;12.15;4.43;;;;;;;5.92;95.59;99294.03;5006920;28;20153;-63
2022/11/23 04:16:13;;;;;;;12.57;5.60;;;;;;;5.85;95.43;99277.88;5024713;28;20500;-63
2022/11/23 04:18:40;;;;;;;8.13;3.65;;;;;;;5.92;95.10;99289.44;5006636;28;20030;-63
2022/11/23 04:21:06;;;;;;;10.23;5.03;;;;;;;5.70;95.51;99282.19;4993481;28;20409;-63
2022/11/23 04:23:32;;;;;;;11.93;4.57;;;;;;;5.76;95.91;99280.00;5011115;28;20160;-63
2022/11/23 04:25:58;;;;;;;11.40;4.57;;;;;;;5.84;96.17;99279.81;5004954;28;20061;-63
2022/11/23 04:28:24;;;;;;;7.05;3.70;;;;;;;5.89;96.35;99284.84;4992074;28;20030;-63
2022/11/23 04:30:50;;;;;;;9.23;3.85;;;;;;;5.97;95.63;99286.50;4988995;28;20028;-63
2022/11/23 04:33:17;;;;;;;11.10;4.20;;;;;;;5.95;96.12;99282.63;4992246;28;20029;-63
2022/11/23 04:35:43;;;;;;;8.23;3.80;;;;;;;5.97;95.80;99291.06;5008290;28;20053;-63
2022/11/23 04:38:08;;;;;;;6.68;3.42;;;;;;;6.02;95.38;99294.19;5003088;28;20556;-63
2022/11/23 04:40:35;;;;;;;8.52;3.67;;;;;;;6.01;95.99;99283.88;4999744;28;20057;-63
2022/11/23 04:43:03;;;;;;;7.68;4.05;;;;;;;6.04;95.72;99293.88;5008925;28;20034;-63
2022/11/23 04:45:32;;;;;;;11.18;4.70;;;;;;;6.05;95.98;99282.81;4982977;28;20495;-63
2022/11/23 04:48:05;;;;;;;12.27;4.47;;;;;;;6.19;94.76;99290.28;4995298;28;20581;-63
2022/11/23 04:50:33;;;;;;;7.72;3.85;;;;;;;6.11;95.15;99296.63;4993194;28;20401;-63
2022/11/23 04:52:59;;;;;;;9.55;4.28;;;;;;;6.10;95.15;99284.41;5006570;28;20026;-64
2022/11/23 04:55:36;;;;;;;8.77;3.67;;;;;;;6.12;95.46;99287.47;5008894;28;20506;-63
2022/11/23 04:58:03;;;;;;;6.85;3.25;;;;;;;6.15;95.04;99289.44;5006059;28;20113;-63
2022/11/23 05:00:31;;;;;;;12.63;3.60;;;;;;;6.08;94.94;99289.31;5000211;28;20820;-63
2022/11/23 05:03:19;;;;;;;10.70;3.95;;;;;;;6.10;95.24;99293.19;5021541;28;20072;-63
2022/11/23 05:06:06;;;;;;;6.75;3.38;;;;;;;6.12;95.70;99300.84;4968122;28;20041;-63
2022/11/23 05:08:37;;;;;;;8.95;4.32;;;;;;;6.07;95.29;99299.25;4952050;28;20045;-63
2022/11/23 05:11:28;;;;;;;8.75;3.75;;;;;;;6.10;95.79;99300.44;4964815;28;20507;-63
2022/11/23 05:13:57;;;;;;;7.90;4.05;;;;;;;6.12;95.23;99306.19;4951938;28;20042;-63
2022/11/23 05:16:22;;;;;;;9.32;4.00;;;;;;;6.16;95.64;99305.13;4968635;28;20057;-63
2022/11/23 05:18:48;;;;;;;8.18;3.95;;;;;;;6.24;94.85;99309.44;4948127;28;20038;-63
2022/11/23 05:21:13;;;;;;;7.95;4.00;;;;;;;5.99;95.42;99297.59;4936105;28;20042;-63
2022/11/23 05:23:39;;;;;;;10.00;3.90;;;;;;;6.08;95.87;99306.13;4952876;28;20050;-63
2022/11/23 05:26:04;;;;;;;9.02;4.88;;;;;;;6.14;96.01;99314.63;4952660;28;20033;-63
2022/11/23 05:28:31;;;;;;;4.50;2.97;;;;;;;6.08;95.79;99295.44;4951125;28;20053;-63
2022/11/23 05:30:57;;;;;;;10.52;3.58;;;;;;;6.05;96.04;99296.19;4943063;28;20047;-63
2022/11/23 05:33:23;;;;;;;7.15;4.13;;;;;;;6.10;95.57;99305.78;4950929;28;20041;-63
2022/11/23 05:35:48;;;;;;;10.95;4.93;;;;;;;6.16;96.07;99299.78;4967855;28;20496;-63
2022/11/23 05:38:15;;;;;;;6.85;3.45;;;;;;;6.25;95.55;99299.53;4951101;28;20085;-63
2022/11/23 05:40:41;;;;;;;4.97;2.88;;;;;;;6.23;95.39;99304.47;4950307;28;20034;-63
2022/11/23 05:43:08;;;;;;;16.20;4.40;;;;;;;6.23;95.72;99305.22;4981352;28;20621;-63
2022/11/23 05:45:34;;;;;;;8.43;4.30;;;;;;;6.33;95.32;99309.19;5020537;28;20030;-64
2022/11/23 05:48:00;;;;;;;6.43;3.55;;;;;;;6.14;95.51;99301.25;4988878;28;20033;-63
2022/11/23 05:50:57;;;;;;;6.03;3.00;;;;;;;6.00;96.57;99306.41;5001447;28;20069;-63
2022/11/23 05:53:27;;;;;;;5.03;3.30;;;;;;;6.07;96.53;99296.59;5006029;28;20038;-63
2022/11/23 05:56:02;;;;;;;11.32;4.63;;;;;;;6.10;96.39;99295.88;5005180;28;20144;-64
2022/11/23 05:58:33;;;;;;;8.82;4.28;;;;;;;6.20;96.76;99299.81;5015119;28;20034;-63
2022/11/23 06:00:59;;;;;;;11.52;3.53;;;;;;;6.25;95.54;99299.53;5016706;28;20045;-63
2022/11/23 06:03:27;;;;;;;8.63;3.92;;;;;;;6.28;95.87;99301.47;5001700;28;20030;-63
2022/11/23 06:05:53;;;;;;;8.18;3.85;;;;;;;6.28;95.34;99302.25;5001528;28;20029;-64
2022/11/23 06:08:26;;;;;;;7.55;4.07;;;;;;;6.19;96.02;99298.28;5004326;28;20254;-63
2022/11/23 06:10:51;;;;;;;8.88;3.42;;;;;;;6.22;95.98;99306.38;5004725;28;20093;-63
2022/11/23 06:13:17;;;;;;;10.65;4.68;;;;;;;6.27;96.30;99314.06;5009589;28;20114;-63
2022/11/23 06:15:43;;;;;;;9.38;4.43;;;;;;;6.33;95.49;99314.53;5013926;28;20713;-63
2022/11/23 06:18:10;;;;;;;11.48;4.38;;;;;;;6.30;96.25;99305.34;5005393;28;20045;-63
2022/11/23 06:20:43;;;;;;;7.05;3.88;;;;;;;6.31;95.90;99312.22;5020987;28;20060;-63
2022/11/23 06:23:10;;;;;;;7.70;3.80;;;;;;;6.36;95.91;99306.59;5000193;28;20034;-63
2022/11/23 06:25:37;;;;;;;9.98;3.45;;;;;;;6.27;95.92;99302.63;5005065;28;20034;-63
2022/11/23 06:28:35;;;;;;;6.53;3.08;;;;;;;6.23;96.30;99317.84;4994468;28;20041;-63
2022/11/23 06:31:04;;;;;;;8.00;3.95;;;;;;;6.12;96.69;99306.19;5005329;28;20091;-63
2022/11/23 06:33:30;;;;;;;6.70;3.28;;;;;;;6.21;97.44;99315.50;5012852;28;20980;-63
2022/11/23 06:35:59;;;;;;;9.35;4.10;;;;;;;6.34;96.29;99324.09;4986882;28;20026;-63
2022/11/23 06:38:30;;;;;;;8.80;4.00;;;;;;;6.47;95.51;99322.78;5005493;28;20536;-64
2022/11/23 06:41:16;;;;;;;7.10;3.83;;;;;;;6.26;96.70;99323.22;5005351;28;20029;-65
2022/11/23 06:43:45;;;;;;;10.00;3.85;;;;;;;6.34;96.48;99327.56;4979336;28;20041;-64
2022/11/23 06:46:16;;;;;;;5.25;2.95;;;;;;;6.14;98.01;99319.97;5016264;28;20026;-64
2022/11/23 06:48:45;;;;;;;5.88;3.05;;;;;;;6.27;97.37;99324.00;5008799;28;20037;-64
2022/11/23 06:51:13;;;;;;;8.05;3.67;;;;;;;6.31;97.14;99328.25;5017716;28;20026;-64
2022/11/23 06:53:39;;;;;;;7.82;3.60;;;;;;;6.20;97.88;99329.22;5001827;28;20030;-64
2022/11/23 06:56:06;;;;;;;5.43;3.17;;;;;;;6.33;97.68;99323.31;5003420;28;20033;-64
2022/11/23 06:58:33;;;;;;;7.03;3.50;;;;;;;6.29;97.33;99327.84;4998586;28;20030;-64
2022/11/23 07:01:07;;;;;;;7.72;4.13;;;;;;;6.35;97.79;99329.09;5024299;28;20037;-64
2022/11/23 07:03:41;;;;;;;9.55;4.30;;;;;;;6.42;97.67;99327.66;5023144;28;20036;-64
2022/11/23 07:06:23;;;;;;;5.78;2.75;;;;;;;6.43;97.77;99334.56;5008922;28;20033;-64
2022/11/23 07:08:54;;;;;;;6.88;3.20;;;;;;;6.44;97.49;99328.06;5008731;28;20037;-64
2022/11/23 07:11:39;;;;;;;5.22;2.72;;;;;;;6.37;97.83;99339.41;5010374;28;20496;-64
2022/11/23 07:14:05;;;;;;;6.15;2.67;;;;;;;6.49;97.74;99349.13;4998963;28;20033;-64
2022/11/23 07:16:33;;;;;;;6.97;2.92;;;;;;;6.48;97.94;99348.38;5009142;28;20410;-64
2022/11/23 07:18:59;;;;;;;7.50;3.80;;;;;;;6.51;98.70;99336.97;5001501;28;20037;-64
2022/11/23 07:21:25;;;;;;;4.07;2.33;;;;;;;6.56;98.32;99351.94;5011798;28;20418;-64
2022/11/23 07:23:50;;;;;;;7.88;3.45;;;;;;;6.60;97.91;99347.41;5011131;28;20088;-64
2022/11/23 07:26:16;;;;;;;6.18;2.63;;;;;;;6.65;97.38;99342.53;5005021;28;20376;-64
2022/11/23 07:28:41;;;;;;;7.32;3.60;;;;;;;6.67;97.97;99345.63;5011927;28;20033;-64
2022/11/23 07:31:08;;;;;;;8.10;3.55;;;;;;;6.63;97.96;99344.78;5006862;28;20030;-64
2022/11/23 07:33:34;;;;;;;10.05;3.15;;;;;;;6.71;98.11;99357.13;4995253;28;20512;-64
2022/11/23 07:36:01;;;;;;;8.75;3.97;;;;;;;6.73;97.60;99362.91;5001138;28;20084;-64
2022/11/23 07:38:27;;;;;;;4.30;2.05;;;;;;;6.64;98.20;99362.38;5010387;28;20037;-64
2022/11/23 07:40:53;;;;;;;6.70;3.28;;;;;;;6.71;99.25;99348.34;4989621;28;20030;-64
2022/11/23 07:43:36;;;;;;;3.00;2.25;;;;;;;6.76;98.74;99354.13;5013027;28;20116;-64
2022/11/23 07:46:02;;;;;;;6.40;2.50;;;;;;;6.79;99.17;99358.78;4991327;28;20668;-64
2022/11/23 07:48:27;;;;;;;6.70;3.30;;;;;;;6.84;98.45;99355.78;5010616;28;20044;-64
2022/11/23 07:50:54;;;;;;;5.07;3.22;;;;;;;6.70;99.71;99360.16;5012640;28;20040;-64
2022/11/23 07:53:22;;;;;;;6.60;2.85;;;;;;;6.75;99.79;99362.53;5011250;28;20524;-64
2022/11/23 07:55:48;;;;;;;5.10;2.63;;;;;;;6.85;99.57;99360.00;4990425;28;20058;-64
2022/11/23 07:58:14;;;;;;;9.05;3.30;;;;;;;6.81;99.77;99369.91;4994414;28;20054;-64
2022/11/23 08:00:39;;;;;;;13.00;3.67;;;;;;;6.98;98.97;99365.91;5009843;28;20457;-64
2022/11/23 08:03:04;;;;;;;4.93;2.95;;;;;;;7.00;98.92;99359.06;5011769;28;20045;-64
2022/11/23 08:05:31;;;;;;;5.72;3.35;;;;;;;6.92;99.94;99362.78;5002444;28;20038;-64
2022/11/23 08:07:58;;;;;;;7.30;3.30;;;;;;;6.96;99.85;99365.50;5014039;28;20037;-64
2022/11/23 08:10:29;;;;;;;7.72;3.28;;;;;;;6.85;100.00;99368.00;4991133;28;20069;-64
2022/11/23 08:13:03;;;;;;;5.50;2.67;;;;;;;6.95;100.00;99372.75;5011061;23;20030;-64
2022/11/23 08:15:29;;;;;;;3.10;2.30;;;;;;;7.07;100.00;99361.81;5025380;28;20311;-65
2022/11/23 08:17:56;;;;;;;6.60;3.25;;;;;;;7.12;100.00;99372.19;5028304;28;20037;-64
2022/11/23 08:20:21;;;;;;;4.82;2.85;;;;;;;7.16;100.00;99382.97;5017489;28;20041;-66
2022/11/23 08:22:47;;;;;;;3.90;2.72;;;;;;;7.16;99.49;99374.94;5027883;28;20056;-64
2022/11/23 08:25:13;;;;;;;3.92;3.08;;;;;;;7.11;99.67;99370.69;4990866;28;20031;-64
2022/11/23 08:27:38;;;;;;;8.15;4.25;;;;;;;7.19;99.76;99377.66;5006595;28;20049;-65
2022/11/23 08:30:04;;;;;;;5.88;2.70;;;;;;;7.16;100.00;99373.03;4996017;28;20034;-64
2022/11/23 08:32:30;;;;;;;8.52;2.22;;;;;;;7.21;100.00;99374.63;4991547;28;20089;-64
2022/11/23 08:34:55;;;;;;;5.07;3.00;;;;;;;7.28;100.00;99378.16;4997987;28;20034;-64
2022/11/23 08:37:21;;;;;;;3.78;2.55;;;;;;;7.39;100.00;99374.84;4996406;28;20030;-64
2022/11/23 08:39:46;;;;;;;5.38;2.92;;;;;;;7.37;99.79;99379.78;5007563;28;20821;-64
2022/11/23 08:42:11;;;;;;;4.97;3.25;;;;;;;7.34;100.00;99378.59;5006376;28;20548;-65
2022/11/23 08:44:37;;;;;;;5.97;2.88;;;;;;;7.41;100.00;99375.25;5010606;28;20048;-64
2022/11/23 08:47:02;;;;;;;5.43;2.72;;;;;;;7.46;100.00;99378.38;5010244;28;20398;-64
2022/11/23 08:49:28;;;;;;;3.78;2.88;;;;;;;7.51;99.96;99374.59;5003660;28;20034;-65
2022/11/23 08:51:54;;;;;;;5.78;2.90;;;;;;;7.60;99.19;99377.75;5009948;28;20461;-65
2022/11/23 08:54:21;;;;;;;3.97;2.15;;;;;;;7.56;99.11;99375.06;5009697;28;20119;-64
2022/11/23 08:56:47;;;;;;;3.33;2.50;;;;;;;7.51;99.53;99383.38;5008214;28;20033;-64
2022/11/23 08:59:12;;;;;;;8.55;3.05;;;;;;;7.52;100.00;99384.16;5000650;28;20052;-64
2022/11/23 09:01:37;;;;;;;5.53;2.75;;;;;;;7.44;100.00;99377.19;5004302;28;20390;-64
2022/11/23 09:04:03;;;;;;;5.68;3.35;;;;;;;7.30;100.00;99378.56;5009437;28;20022;-64
2022/11/23 09:06:32;;;;;;;5.95;3.13;;;;;;;7.44;100.00;99387.91;5011083;28;20527;-64
2022/11/23 09:08:57;;;;;;;4.97;2.60;;;;;;;7.42;100.00;99379.44;5000614;28;20026;-64
2022/11/23 09:11:25;;;;;;;6.38;3.53;;;;;;;7.35;100.00;99385.50;5004575;28;20044;-64
2022/11/23 09:13:51;;;;;;;3.45;2.45;;;;;;;7.52;100.00;99384.16;5010921;28;20041;-64
2022/11/23 09:16:17;;;;;;;6.80;3.50;;;;;;;7.64;100.00;99387.38;5010879;28;20467;-65
2022/11/23 09:18:42;;;;;;;7.93;3.30;;;;;;;7.65;100.00;99383.56;5006727;28;20172;-64
2022/11/23 09:21:09;;;;;;;5.57;2.92;;;;;;;7.63;100.00;99385.06;5000632;28;20026;-65
2022/11/23 09:23:35;;;;;;;7.00;2.65;;;;;;;7.72;100.00;99386.34;5006994;28;20412;-64
2022/11/23 09:26:01;;;;;;;4.03;2.22;;;;;;;7.79;100.00;99393.66;4991068;28;20030;-64
2022/11/23 09:28:27;;;;;;;4.63;2.28;;;;;;;7.87;100.00;99381.88;4998989;28;20077;-64
2022/11/23 09:30:54;;;;;;;4.25;2.28;;;;;;;7.84;100.00;99388.00;5020791;28;20116;-64
2022/11/23 09:33:20;;;;;;;5.82;2.85;;;;;;;7.67;100.00;99392.00;5007448;28;20041;-64
2022/11/23 09:35:54;;;;;;;6.13;3.17;;;;;;;7.80;100.00;99411.28;5009041;28;20617;-64
2022/11/23 09:38:20;;;;;;;6.35;3.13;;;;;;;7.88;100.00;99400.28;5005251;28;20456;-64
2022/11/23 09:40:45;;;;;;;4.63;2.60;;;;;;;8.05;100.00;99405.03;5003855;28;20109;-64
2022/11/23 09:43:35;;;;;;;5.03;2.35;;;;;;;8.02;99.96;99405.78;5009978;28;20113;-64
2022/11/23 09:46:24;;;;;;;2.97;2.40;;;;;;;8.01;100.00;99406.91;5004470;28;20044;-64
2022/11/23 09:49:15;;;;;;;3.47;2.15;;;;;;;8.06;100.00;99405.81;4998333;28;20100;-65
2022/11/23 09:51:41;;;;;;;5.80;3.10;;;;;;;8.18;100.00;99400.97;4993410;28;20509;-64
2022/11/23 09:54:22;;;;;;;3.47;2.17;;;;;;;8.32;100.00;99403.03;5002102;28;20046;-64
2022/11/23 09:56:52;;;;;;;4.47;2.53;;;;;;;8.54;99.73;99412.00;5011060;28;20464;-65
2022/11/23 09:59:40;;;;;;;5.15;2.40;;;;;;;8.68;98.91;99401.38;5010323;28;20041;-64
2022/11/23 10:02:18;;;;;;;4.55;2.83;;;;;;;8.81;99.61;99403.41;5009981;28;20041;-64
2022/11/23 10:04:44;;;;;;;6.28;3.28;;;;;;;8.85;98.40;99419.53;5007200;28;20088;-64
2022/11/23 10:07:24;;;;;;;3.38;2.38;;;;;;;8.82;98.93;99414.91;5008109;28;20394;-65
2022/11/23 10:10:04;;;;;;;2.20;1.80;;;;;;;8.80;98.55;99420.66;5005837;28;20397;-65
2022/11/23 10:12:55;;;;;;;6.25;3.03;;;;;;;8.72;98.59;99412.91;5002252;28;20214;-65
2022/11/23 10:16:00;;;;;;;4.75;2.63;;;;;;;8.88;98.73;99410.75;5008408;28;20034;-65
2022/11/23 10:18:57;;;;;;;9.15;2.53;;;;;;;8.94;97.63;99420.75;4996320;28;20383;-65
2022/11/23 10:21:42;;;;;;;3.53;2.50;;;;;;;8.96;97.72;99418.44;5002831;28;20045;-65
2022/11/23 10:24:07;;;;;;;5.47;2.83;;;;;;;9.05;97.75;99418.91;5010417;28;20109;-65
2022/11/23 10:26:42;;;;;;;5.80;2.33;;;;;;;9.18;97.60;99416.66;5008248;28;20116;-65
2022/11/23 10:29:15;;;;;;;3.05;2.28;;;;;;;9.24;96.54;99422.44;5007452;28;20308;-65
2022/11/23 10:31:46;;;;;;;5.35;2.95;;;;;;;9.10;96.13;99417.75;5008568;28;20064;-65
2022/11/23 10:34:14;;;;;;;4.45;2.55;;;;;;;9.07;96.78;99426.59;5010536;28;20128;-65
2022/11/23 10:36:40;;;;;;;5.03;2.45;;;;;;;9.09;96.86;99417.03;4995197;28;20109;-65
2022/11/23 10:39:23;;;;;;;9.15;2.83;;;;;;;9.01;96.54;99423.47;4994489;28;20118;-65
2022/11/23 10:41:53;;;;;;;4.18;2.60;;;;;;;9.02;97.25;99419.63;5005256;28;20040;-65
2022/11/23 10:44:28;;;;;;;5.03;2.13;;;;;;;9.00;97.52;99421.94;5011174;28;20481;-65
2022/11/23 10:46:53;;;;;;;4.60;2.53;;;;;;;8.98;96.89;99424.22;5012156;28;20084;-65
2022/11/23 10:49:23;;;;;;;3.65;2.90;;;;;;;9.04;97.71;99411.97;5009547;28;20402;-65
2022/11/23 10:51:57;;;;;;;8.35;2.55;;;;;;;9.03;97.44;99412.38;5007103;28;20101;-65
2022/11/23 10:54:29;;;;;;;4.20;2.70;;;;;;;9.07;97.37;99419.31;5005398;28;20038;-65
2022/11/23 10:56:56;;;;;;;4.13;2.17;;;;;;;8.93;97.23;99416.53;5011641;28;20498;-65
2022/11/23 10:59:28;;;;;;;3.88;2.15;;;;;;;8.98;97.44;99412.72;5014183;28;20026;-65
2022/11/23 11:02:14;;;;;;;10.27;3.58;;;;;;;8.97;97.15;99411.94;5008341;28;20386;-65
2022/11/23 11:04:40;;;;;;;4.30;1.83;;;;;;;9.12;97.72;99420.09;5013439;28;20045;-65
2022/11/23 11:07:28;;;;;;;4.72;2.72;;;;;;;9.15;96.34;99422.03;5010008;28;20041;-65
2022/11/23 11:09:57;;;;;;;4.28;2.50;;;;;;;9.16;96.60;99421.63;5003131;28;20168;-65
2022/11/23 11:12:23;;;;;;;3.60;2.20;;;;;;;9.17;95.82;99423.19;5007466;28;20037;-65
2022/11/23 11:14:57;;;;;;;3.75;2.17;;;;;;;9.15;96.85;99419.34;5013037;28;20763;-65
2022/11/23 11:17:29;;;;;;;6.20;2.95;;;;;;;9.11;96.95;99422.00;5002784;28;20033;-65
2022/11/23 11:19:54;;;;;;;;;;;;;;;9.18;96.54;99418.56;5005666;28;20136;-65
2022/11/23 11:22:26;;;;;;;1.95;1.52;;;;;;;9.28;96.75;99415.97;5007512;28;20398;-65
2022/11/23 11:24:52;;;;;;;3.72;2.35;;;;;;;9.22;96.19;99422.06;5008557;28;20022;-65
2022/11/23 11:27:27;;;;;;;3.95;2.20;;;;;;;9.26;96.65;99420.16;5009724;28;20045;-65
2022/11/23 11:29:56;;;;;;;4.75;2.22;;;;;;;9.31;96.96;99414.44;5005343;28;20557;-65
2022/11/23 11:32:31;;;;;;;3.08;2.13;;;;;;;9.35;97.11;99423.28;4994619;28;20042;-65
2022/11/23 11:35:11;;;;;;;3.65;1.90;;;;;;;9.41;97.35;99416.38;5004871;28;20129;-65
2022/11/23 11:37:47;;;;;;;4.70;2.67;;;;;;;9.51;96.91;99419.13;5010455;28;20119;-65
2022/11/23 11:40:38;;;;;;;6.57;2.97;;;;;;;9.44;96.47;99416.44;5007683;28;20112;-65
2022/11/23 11:43:09;;;;;;;3.25;2.17;;;;;;;9.28;97.53;99424.03;5005087;28;20038;-65
2022/11/23 11:45:42;;;;;;;3.15;2.22;;;;;;;9.40;98.05;99414.88;5027596;28;20093;-65
2022/11/23 11:48:19;;;;;;;3.58;2.42;;;;;;;9.39;98.14;99424.84;4997477;28;20033;-65
2022/11/23 11:51:05;;;;;;;11.95;3.15;;;;;;;9.39;98.89;99410.66;5010917;28;20045;-65